Terminal Aerodrome Forecast
Issued by NWS Paducah, KY

Home | Current Version | Previous Version | Text Only | Print | Product List | Glossary On
Versions: 1 2 3 4 5 6 7 8 9 10 11 12 13 14 15 16 17 18 19 20 21 22 23
000
FTUS43 KPAH 281028 AAA
TAFEVV
TAF AMD
KEVV 281028Z 2810/2906 32004KT 6SM BR OVC004
      TEMPO 2810/2812 4SM BR
     FM281400 02007KT P6SM SCT008 BKN020
     FM282200 04005KT P6SM OVC050=

USA.gov is the U.S. government's official web portal to all federal, state and local government web resources and services.